Suamico, Wisconsin
Current Conditions -  °F | °C
As of 4:53 AM on Friday 31 Oct 2014 (Local Time) from KGRB Reporting Station
Overcast Overcast  
Wind Chill: 26°   Ceiling: 3000
Heat Index: 37°   Visibility: 10mi
Dew Point: 28°   Wind: 22mph
Humidity: 70%   Direction: 360°N
Pressure: 30.12"   Gusts: 37mph
Location:  44.63°N, 88.04°W
Report Text: KGRB 310953Z AUTO 36019G32KT 10SM BKN030 OVC037 03/M02 A3012 RMK AO2 PK WND 35033/0929 SLP204 T00281022 $
Loading
Personal Weather Stations






























Interactive Weather Map
Tropical Storm Tracking
New forecast layout! Learn more

10-Day Weather Forecast

Advertisements
Track Severe Weather on mobile